createdAt,value
2018-12-02T00:00:57.246Z,7.63
2018-12-02T00:03:26.440Z,7.59
2018-12-02T00:05:55.145Z,7.62
2018-12-02T00:08:24.295Z,7.45
2018-12-02T00:10:53.065Z,7.39
2018-12-02T00:13:22.415Z,7.34
2018-12-02T00:15:51.127Z,7.31
2018-12-02T00:18:20.040Z,7.35
2018-12-02T00:20:49.082Z,7.30
2018-12-02T00:23:17.488Z,7.24
2018-12-02T00:25:46.429Z,7.20
2018-12-02T00:28:15.314Z,7.20
2018-12-02T00:30:44.198Z,7.17
2018-12-02T00:33:12.629Z,7.17
2018-12-02T00:35:41.086Z,7.07
2018-12-02T00:38:09.828Z,7.13
2018-12-02T00:40:38.755Z,7.05
2018-12-02T00:43:08.697Z,7.08
2018-12-02T00:45:38.621Z,6.99
2018-12-02T00:48:08.892Z,7.00
2018-12-02T00:50:37.406Z,7.00
2018-12-02T00:53:07.394Z,6.93
2018-12-02T00:55:39.368Z,6.91
2018-12-02T00:58:08.948Z,6.86
2018-12-02T01:00:38.021Z,6.85
2018-12-02T01:03:08.369Z,6.85
2018-12-02T01:05:36.796Z,6.86
2018-12-02T01:08:06.210Z,6.87
2018-12-02T01:10:35.663Z,6.86
2018-12-02T01:13:04.645Z,6.87
2018-12-02T01:15:34.489Z,6.92
2018-12-02T01:18:03.278Z,6.91
2018-12-02T01:20:32.381Z,6.88
2018-12-02T01:23:00.790Z,6.83
2018-12-02T01:25:29.708Z,6.80
2018-12-02T01:27:58.118Z,6.83
2018-12-02T01:30:28.008Z,6.76
2018-12-02T01:32:56.815Z,6.86
2018-12-02T01:35:26.016Z,6.78
2018-12-02T01:37:54.984Z,6.80
2018-12-02T01:40:24.336Z,6.77
2018-12-02T01:42:53.630Z,6.84
2018-12-02T01:45:23.089Z,6.85
2018-12-02T01:47:52.060Z,6.85
2018-12-02T01:50:21.889Z,6.87
2018-12-02T01:52:52.010Z,6.86
2018-12-02T01:55:21.613Z,6.87
2018-12-02T01:57:51.174Z,6.97
2018-12-02T02:00:24.607Z,6.99
2018-12-02T02:02:53.788Z,6.90
2018-12-02T02:05:23.304Z,6.99
2018-12-02T02:07:52.790Z,6.95
2018-12-02T02:10:23.405Z,6.90
2018-12-02T02:12:52.335Z,6.93
2018-12-02T02:15:21.882Z,6.87
2018-12-02T02:17:50.509Z,6.89
2018-12-02T02:20:20.852Z,6.89
2018-12-02T02:22:49.542Z,6.91
2018-12-02T02:25:18.804Z,6.77
2018-12-02T02:27:49.275Z,6.78
2018-12-02T02:30:18.677Z,6.82
2018-12-02T02:32:48.088Z,6.81
2018-12-02T02:35:17.917Z,6.81
2018-12-02T02:37:47.368Z,6.76
2018-12-02T02:40:20.106Z,6.80
2018-12-02T02:42:49.820Z,6.83
2018-12-02T02:45:18.719Z,6.76
2018-12-02T02:47:47.784Z,6.86
2018-12-02T02:50:17.673Z,6.84
2018-12-02T02:52:48.376Z,6.92
2018-12-02T02:55:17.776Z,6.96
2018-12-02T02:57:46.796Z,6.99
2018-12-02T03:00:20.459Z,6.92
2018-12-02T03:02:49.802Z,6.97
2018-12-02T03:05:19.164Z,6.95
2018-12-02T03:07:47.602Z,6.99
2018-12-02T03:10:18.516Z,6.94
2018-12-02T03:12:49.223Z,7.00
2018-12-02T03:15:19.043Z,6.97
2018-12-02T03:17:48.381Z,6.96
2018-12-02T03:20:17.813Z,6.98
2018-12-02T03:22:47.141Z,7.07
2018-12-02T03:25:16.410Z,7.09
2018-12-02T03:27:45.204Z,7.10
2018-12-02T03:30:15.547Z,7.06
2018-12-02T03:32:43.990Z,7.02
2018-12-02T03:35:16.184Z,7.07
2018-12-02T03:37:45.171Z,7.05
2018-12-02T03:40:24.745Z,7.08
2018-12-02T03:42:53.771Z,6.99
2018-12-02T03:45:27.605Z,7.03
2018-12-02T03:47:56.706Z,7.00
2018-12-02T03:50:25.218Z,7.01
2018-12-02T03:52:53.633Z,7.02
2018-12-02T03:55:24.136Z,6.94
2018-12-02T03:57:53.348Z,7.01
2018-12-02T04:00:26.364Z,7.03
2018-12-02T04:02:56.693Z,7.00
2018-12-02T04:05:26.213Z,7.03
2018-12-02T04:07:54.943Z,7.01
2018-12-02T04:10:24.071Z,7.08
2018-12-02T04:12:53.000Z,6.99
2018-12-02T04:15:23.179Z,7.05
2018-12-02T04:17:52.352Z,7.06
2018-12-02T04:20:21.584Z,7.05
2018-12-02T04:22:51.005Z,7.08
2018-12-02T04:25:20.421Z,7.02
2018-12-02T04:27:49.718Z,7.03
2018-12-02T04:30:18.899Z,7.07
2018-12-02T04:32:48.512Z,7.09
2018-12-02T04:35:21.936Z,7.10
2018-12-02T04:37:51.362Z,7.07
2018-12-02T04:40:20.075Z,7.08
2018-12-02T04:42:49.037Z,7.08
2018-12-02T04:45:20.204Z,7.07
2018-12-02T04:47:49.695Z,7.10
2018-12-02T04:50:23.615Z,7.12
2018-12-02T04:52:52.500Z,7.21
2018-12-02T04:55:21.998Z,7.10
2018-12-02T04:57:51.410Z,7.08
2018-12-02T05:00:21.361Z,7.07
2018-12-02T05:02:52.271Z,7.14
2018-12-02T05:05:25.164Z,7.14
2018-12-02T05:07:54.031Z,7.18
2018-12-02T05:10:22.699Z,7.11
2018-12-02T05:12:52.442Z,7.13
2018-12-02T05:15:21.536Z,7.13
2018-12-02T05:17:51.865Z,7.18
2018-12-02T05:20:23.884Z,7.11
2018-12-02T05:22:53.047Z,7.12
2018-12-02T05:25:22.455Z,7.06
2018-12-02T05:27:51.128Z,7.04
2018-12-02T05:30:21.211Z,7.10
2018-12-02T05:32:52.018Z,7.10
2018-12-02T05:35:21.422Z,7.07
2018-12-02T05:37:50.360Z,7.08
2018-12-02T05:40:25.716Z,7.08
2018-12-02T05:42:55.104Z,7.11
2018-12-02T05:45:24.188Z,7.05
2018-12-02T05:48:08.977Z,7.08
2018-12-02T05:50:37.443Z,7.07
2018-12-02T05:53:06.587Z,7.03
2018-12-02T05:55:36.588Z,7.07
2018-12-02T05:58:05.499Z,7.04
2018-12-02T06:00:36.187Z,7.07
2018-12-02T06:03:05.758Z,7.07
2018-12-02T06:05:35.332Z,7.09
2018-12-02T06:08:04.621Z,7.08
2018-12-02T06:10:33.534Z,7.12
2018-12-02T06:13:02.861Z,7.16
2018-12-02T06:15:31.630Z,7.17
2018-12-02T06:18:00.067Z,7.15
2018-12-02T06:20:28.666Z,7.17
2018-12-02T06:22:58.453Z,7.14
2018-12-02T06:25:27.393Z,7.12
2018-12-02T06:27:56.479Z,7.18
2018-12-02T06:30:26.028Z,7.17
2018-12-02T06:32:57.739Z,7.20
2018-12-02T06:35:27.509Z,7.18
2018-12-02T06:37:56.917Z,7.22
2018-12-02T06:40:29.610Z,7.21
2018-12-02T06:42:59.865Z,7.28
2018-12-02T06:45:29.340Z,7.34
2018-12-02T06:47:58.376Z,7.22
2018-12-02T06:50:28.492Z,7.26
2018-12-02T06:52:57.593Z,7.26
2018-12-02T06:55:34.766Z,7.29
2018-12-02T06:58:13.985Z,7.25
2018-12-02T07:00:54.229Z,7.27
2018-12-02T07:03:28.025Z,7.36
2018-12-02T07:05:57.598Z,7.32
2018-12-02T07:08:26.909Z,7.31
2018-12-02T07:10:55.941Z,7.37
2018-12-02T07:13:29.510Z,7.38
2018-12-02T07:15:58.604Z,7.35
2018-12-02T07:18:28.706Z,7.39
2018-12-02T07:21:22.939Z,7.42
2018-12-02T07:23:58.655Z,7.38
2018-12-02T07:26:30.251Z,7.38
2018-12-02T07:29:03.208Z,7.46
2018-12-02T07:31:32.846Z,7.46
2018-12-02T07:34:06.035Z,7.48
2018-12-02T07:36:35.208Z,7.50
2018-12-02T07:39:11.440Z,7.44
2018-12-02T07:41:41.213Z,7.46
2018-12-02T07:44:09.742Z,7.50
2018-12-02T07:46:38.825Z,7.53
2018-12-02T07:49:08.966Z,7.46
2018-12-02T07:51:38.334Z,7.53
2018-12-02T07:54:10.800Z,7.56
2018-12-02T07:56:49.450Z,7.51
2018-12-02T07:59:20.931Z,7.55
2018-12-02T08:01:51.396Z,7.55
2018-12-02T08:04:21.333Z,7.54
2018-12-02T08:06:51.650Z,7.55
2018-12-02T08:09:22.728Z,7.56
2018-12-02T08:11:53.009Z,7.54
2018-12-02T08:14:21.444Z,7.57
2018-12-02T08:16:52.407Z,7.62
2018-12-02T08:19:21.575Z,7.65
2018-12-02T08:21:50.551Z,7.63
2018-12-02T08:24:20.839Z,7.68
2018-12-02T08:26:53.205Z,7.61
2018-12-02T08:29:22.221Z,7.69
2018-12-02T08:31:50.694Z,7.71
2018-12-02T08:34:19.519Z,7.75
2018-12-02T08:36:47.988Z,7.70
2018-12-02T08:39:17.242Z,7.77
2018-12-02T08:41:46.624Z,7.75
2018-12-02T08:44:16.157Z,7.75
2018-12-02T08:46:45.950Z,7.81
2018-12-02T08:49:15.381Z,7.79
2018-12-02T08:51:46.220Z,7.85
2018-12-02T08:54:15.718Z,7.76
2018-12-02T08:56:44.929Z,7.82
2018-12-02T08:59:14.853Z,7.80
2018-12-02T09:01:44.694Z,7.82
2018-12-02T09:04:13.790Z,7.93
2018-12-02T09:06:43.322Z,7.94
2018-12-02T09:09:12.483Z,7.91
2018-12-02T09:11:42.019Z,7.95
2018-12-02T09:14:11.231Z,8.03
2018-12-02T09:16:40.026Z,8.03
2018-12-02T09:19:08.978Z,8.03
2018-12-02T09:21:37.965Z,8.07
2018-12-02T09:24:07.129Z,8.09
2018-12-02T09:26:39.924Z,8.00
2018-12-02T09:29:10.706Z,8.04
2018-12-02T09:31:42.439Z,8.06
2018-12-02T09:34:12.092Z,7.99
2018-12-02T09:36:42.801Z,8.07
2018-12-02T09:39:18.273Z,8.08
2018-12-02T09:41:42.576Z,8.11
2018-12-02T09:44:18.395Z,8.06
2018-12-02T09:46:51.430Z,8.05
2018-12-02T09:49:22.183Z,8.15
2018-12-02T09:51:54.643Z,8.13
2018-12-02T09:54:24.690Z,8.11
2018-12-02T09:56:53.922Z,8.06
2018-12-02T09:59:22.683Z,8.12
2018-12-02T10:01:52.191Z,8.11
2018-12-02T10:04:22.591Z,8.14
2018-12-02T10:07:17.644Z,8.11
2018-12-02T10:10:14.312Z,8.16
2018-12-02T10:13:16.013Z,8.16
2018-12-02T10:16:15.524Z,8.07
2018-12-02T10:18:54.829Z,8.07
2018-12-02T10:21:48.067Z,8.09
2018-12-02T10:24:22.851Z,8.12
2018-12-02T10:26:52.261Z,8.12
2018-12-02T10:29:25.234Z,8.13
2018-12-02T10:31:55.794Z,8.12
2018-12-02T10:34:30.551Z,8.14
2018-12-02T10:37:01.434Z,8.17
2018-12-02T10:39:33.050Z,8.21
2018-12-02T10:42:05.090Z,8.23
2018-12-02T10:44:41.816Z,8.14
2018-12-02T10:47:17.760Z,8.17
2018-12-02T10:53:11.989Z,8.13
2018-12-02T10:55:46.772Z,8.14
2018-12-02T10:58:20.160Z,8.28
2018-12-02T11:01:10.887Z,8.22
2018-12-02T11:03:54.913Z,8.26
2018-12-02T11:06:42.143Z,8.23
2018-12-02T11:09:15.562Z,8.26
2018-12-02T11:12:03.926Z,8.30
2018-12-02T11:14:35.040Z,8.23
2018-12-02T11:17:03.751Z,8.29
2018-12-02T11:19:33.239Z,8.36
2018-12-02T11:22:02.264Z,8.27
2018-12-02T11:24:30.852Z,8.23
2018-12-02T11:27:00.078Z,8.22
2018-12-02T11:29:29.422Z,8.27
2018-12-02T11:31:58.510Z,8.23
2018-12-02T11:34:27.299Z,8.27
2018-12-02T11:36:56.084Z,8.26
2018-12-02T11:39:25.712Z,8.34
2018-12-02T11:41:54.871Z,8.35
2018-12-02T11:44:23.902Z,8.32
2018-12-02T11:46:52.823Z,8.33
2018-12-02T11:49:22.129Z,8.33
2018-12-02T11:51:51.189Z,8.33
2018-12-02T11:54:20.228Z,8.26
2018-12-02T11:56:48.803Z,8.33
2018-12-02T11:59:17.626Z,8.39
2018-12-02T12:01:46.774Z,8.37
2018-12-02T12:04:16.023Z,8.43
2018-12-02T12:06:45.358Z,8.47
2018-12-02T12:09:14.907Z,8.47
2018-12-02T12:11:44.216Z,8.49
2018-12-02T12:14:14.164Z,8.51
2018-12-02T12:19:36.781Z,8.57
2018-12-02T12:22:07.797Z,8.69
2018-12-02T12:24:38.379Z,8.74
2018-12-02T12:27:11.199Z,8.75
2018-12-02T12:29:41.187Z,8.71
2018-12-02T12:32:20.873Z,8.78
2018-12-02T12:34:50.190Z,8.80
2018-12-02T12:37:26.075Z,8.77
2018-12-02T12:39:57.926Z,8.89
2018-12-02T12:42:30.328Z,8.83
2018-12-02T12:45:22.270Z,8.95
2018-12-02T12:47:54.934Z,9.00
2018-12-02T12:50:26.221Z,8.96
2018-12-02T12:52:55.763Z,9.01
2018-12-02T12:55:25.464Z,8.99
2018-12-02T12:57:59.518Z,9.02
2018-12-02T13:00:30.507Z,9.11
2018-12-02T13:03:02.223Z,9.05
2018-12-02T13:05:33.897Z,9.12
2018-12-02T13:08:11.033Z,9.15
2018-12-02T13:10:43.376Z,9.11
2018-12-02T13:13:12.198Z,9.18
2018-12-02T13:15:43.701Z,9.12
2018-12-02T13:18:15.170Z,9.12
2018-12-02T13:20:56.291Z,9.18
2018-12-02T13:23:25.286Z,9.22
2018-12-02T13:25:56.857Z,9.25
2018-12-02T13:28:33.769Z,9.24
2018-12-02T13:31:13.632Z,9.27
2018-12-02T13:33:45.495Z,9.29
2018-12-02T13:36:21.227Z,9.38
2018-12-02T13:38:56.023Z,9.38
2018-12-02T13:41:27.921Z,9.48
2018-12-02T13:44:02.010Z,9.52
2018-12-02T13:46:31.980Z,9.40
2018-12-02T13:49:02.628Z,9.50
2018-12-02T13:51:33.630Z,9.51
2018-12-02T13:54:08.297Z,9.54
2018-12-02T13:56:39.017Z,9.55
2018-12-02T13:59:08.603Z,9.65
2018-12-02T14:01:38.907Z,9.65
2018-12-02T14:04:08.359Z,9.64
2018-12-02T14:06:37.058Z,9.68
2018-12-02T14:09:07.911Z,9.69
2018-12-02T14:11:36.754Z,9.82
2018-12-02T14:14:06.896Z,9.72
2018-12-02T14:17:16.019Z,9.73
2018-12-02T14:19:46.826Z,9.76
2018-12-02T14:22:16.215Z,9.84
2018-12-02T14:24:45.037Z,9.86
2018-12-02T14:27:15.460Z,9.86
2018-12-02T14:29:54.458Z,9.89
2018-12-02T14:32:24.684Z,9.96
2018-12-02T14:34:53.777Z,9.98
2018-12-02T14:37:22.489Z,9.95
2018-12-02T14:39:51.437Z,9.91
2018-12-02T14:42:20.178Z,9.94
2018-12-02T14:44:49.532Z,10.04
2018-12-02T14:47:18.733Z,9.99
2018-12-02T14:49:48.778Z,10.11
2018-12-02T14:52:17.609Z,10.09
2018-12-02T14:54:46.685Z,10.04
2018-12-02T14:57:15.777Z,10.10
2018-12-02T14:59:44.555Z,10.11
2018-12-02T15:02:13.014Z,10.15
2018-12-02T15:04:41.452Z,10.10
2018-12-02T15:07:11.264Z,10.11
2018-12-02T15:09:40.297Z,9.99
2018-12-02T15:12:09.106Z,9.96
2018-12-02T15:14:38.091Z,9.93
2018-12-02T15:17:06.676Z,10.02
2018-12-02T15:19:35.375Z,9.95
2018-12-02T15:22:04.278Z,9.92
2018-12-02T15:24:33.494Z,9.90
2018-12-02T15:27:04.524Z,9.90
2018-12-02T15:29:35.934Z,9.98
2018-12-02T15:32:11.157Z,10.02
2018-12-02T15:34:46.523Z,10.07
2018-12-02T15:37:17.111Z,10.03
2018-12-02T15:39:54.106Z,10.07
2018-12-02T15:42:23.993Z,10.03
2018-12-02T15:44:53.952Z,10.11
2018-12-02T15:47:24.586Z,10.11
2018-12-02T15:49:57.571Z,10.13
2018-12-02T15:52:30.639Z,10.20
2018-12-02T15:55:01.113Z,10.20
2018-12-02T15:57:41.829Z,10.22
2018-12-02T16:00:19.198Z,10.21
2018-12-02T16:02:49.838Z,10.20
2018-12-02T16:05:20.456Z,10.21
2018-12-02T16:08:01.917Z,10.35
2018-12-02T16:10:32.735Z,10.43
2018-12-02T16:13:02.644Z,10.47
2018-12-02T16:15:41.086Z,10.59
2018-12-02T16:18:13.091Z,10.63
2018-12-02T16:20:51.498Z,10.73
2018-12-02T16:23:22.616Z,10.75
2018-12-02T16:25:57.226Z,10.73
2018-12-02T16:28:26.580Z,10.69
2018-12-02T16:30:56.108Z,10.69
2018-12-02T16:33:26.521Z,10.76
2018-12-02T16:35:57.695Z,10.72
2018-12-02T16:38:26.726Z,10.77
2018-12-02T16:41:00.948Z,10.77
2018-12-02T16:43:31.367Z,10.75
2018-12-02T16:46:00.963Z,10.87
2018-12-02T16:48:39.012Z,11.07
2018-12-02T16:51:09.815Z,11.08
2018-12-02T16:53:41.197Z,11.10
2018-12-02T16:56:12.552Z,11.09
2018-12-02T16:58:53.900Z,11.20
2018-12-02T17:01:24.665Z,11.21
2018-12-02T17:03:56.995Z,11.30
2018-12-02T17:06:25.786Z,11.34
2018-12-02T17:08:56.287Z,11.36
2018-12-02T17:11:25.004Z,11.35
2018-12-02T17:13:54.114Z,11.36
2018-12-02T17:16:22.564Z,11.38
2018-12-02T17:18:51.497Z,11.37
2018-12-02T17:21:29.087Z,11.37
2018-12-02T17:24:00.231Z,11.36
2018-12-02T17:26:29.246Z,11.30
2018-12-02T17:28:58.677Z,11.22
2018-12-02T17:31:34.508Z,11.27
2018-12-02T17:34:04.296Z,11.34
2018-12-02T17:36:33.222Z,11.34
2018-12-02T17:39:06.243Z,11.28
2018-12-02T17:41:35.977Z,11.29
2018-12-02T17:44:05.980Z,11.32
2018-12-02T17:46:35.727Z,11.37
2018-12-02T17:49:04.632Z,11.38
2018-12-02T17:51:33.890Z,11.34
2018-12-02T17:54:02.941Z,11.30
2018-12-02T17:56:32.089Z,11.29
2018-12-02T17:59:01.248Z,11.33
2018-12-02T18:01:30.165Z,11.23
2018-12-02T18:03:58.977Z,11.18
2018-12-02T18:06:28.748Z,11.15
2018-12-02T18:08:57.543Z,11.09
2018-12-02T18:11:26.787Z,11.06
2018-12-02T18:13:55.674Z,10.97
2018-12-02T18:16:24.396Z,10.95
2018-12-02T18:18:53.561Z,10.94
2018-12-02T18:21:22.224Z,10.89
2018-12-02T18:23:51.253Z,10.85
2018-12-02T18:26:32.719Z,10.78
2018-12-02T18:29:02.227Z,10.81
2018-12-02T18:31:31.506Z,10.80
2018-12-02T18:34:00.522Z,10.80
2018-12-02T18:36:31.754Z,10.88
2018-12-02T18:39:01.465Z,10.85
2018-12-02T18:41:39.979Z,10.86
2018-12-02T18:44:11.123Z,10.83
2018-12-02T18:46:39.646Z,10.86
2018-12-02T18:49:08.958Z,10.94
2018-12-02T18:51:38.004Z,10.95
2018-12-02T18:54:08.492Z,10.91
2018-12-02T18:56:37.582Z,11.02
2018-12-02T18:59:06.415Z,11.08
2018-12-02T19:01:35.207Z,11.02
2018-12-02T19:04:04.531Z,11.06
2018-12-02T19:06:33.797Z,11.02
2018-12-02T19:09:03.174Z,10.97
2018-12-02T19:11:31.828Z,11.04
2018-12-02T19:14:06.243Z,10.98
2018-12-02T19:16:37.124Z,11.03
2018-12-02T19:19:15.451Z,11.08
2018-12-02T19:21:46.278Z,11.09
2018-12-02T19:24:15.650Z,11.12
2018-12-02T19:26:46.672Z,11.23
2018-12-02T19:29:21.608Z,11.18
2018-12-02T19:31:50.612Z,11.27
2018-12-02T19:34:20.712Z,11.24
2018-12-02T19:36:52.753Z,11.22
2018-12-02T19:39:21.438Z,11.21
2018-12-02T19:41:50.183Z,11.26
2018-12-02T19:44:18.857Z,11.31
2018-12-02T19:46:50.108Z,11.31
2018-12-02T19:49:19.333Z,11.28
2018-12-02T19:51:48.611Z,11.26
2018-12-02T19:54:17.147Z,11.31
2018-12-02T19:56:47.006Z,11.32
2018-12-02T19:59:20.900Z,11.30
2018-12-02T20:01:49.594Z,11.29
2018-12-02T20:04:18.393Z,11.33
2018-12-02T20:06:48.370Z,11.32
2018-12-02T20:09:18.522Z,11.33
2018-12-02T20:11:49.009Z,11.32
2018-12-02T20:14:18.197Z,11.32
2018-12-02T20:16:47.612Z,11.31
2018-12-02T20:19:21.544Z,11.29
2018-12-02T20:21:50.711Z,11.28
2018-12-02T20:24:24.744Z,11.33
2018-12-02T20:26:53.651Z,11.31
2018-12-02T20:29:24.469Z,11.27
2018-12-02T20:31:53.407Z,11.23
2018-12-02T20:34:22.262Z,11.32
2018-12-02T20:36:50.727Z,11.29
2018-12-02T20:39:19.450Z,11.33
2018-12-02T20:41:48.601Z,11.31
2018-12-02T20:44:17.451Z,11.35
2018-12-02T20:46:46.458Z,11.33
2018-12-02T20:49:15.338Z,11.29
2018-12-02T20:51:45.841Z,11.23
2018-12-02T20:54:14.746Z,11.22
2018-12-02T20:56:43.962Z,11.14
2018-12-02T20:59:13.244Z,11.20
2018-12-02T21:01:43.107Z,11.20
2018-12-02T21:04:13.798Z,11.09
2018-12-02T21:06:42.466Z,11.18
2018-12-02T21:09:11.037Z,11.13
2018-12-02T21:11:40.663Z,11.09
2018-12-02T21:14:08.600Z,11.06
2018-12-02T21:16:38.166Z,11.05
2018-12-02T21:19:06.672Z,11.14
2018-12-02T21:21:37.302Z,11.20
2018-12-02T21:24:05.893Z,11.23
2018-12-02T21:26:34.819Z,11.22
2018-12-02T21:29:03.796Z,11.21
2018-12-02T21:31:32.725Z,11.15
2018-12-02T21:34:01.422Z,11.23
2018-12-02T21:36:30.225Z,11.18
2018-12-02T21:38:59.578Z,11.25
2018-12-02T21:41:28.068Z,11.22
2018-12-02T21:44:01.601Z,11.27
2018-12-02T21:46:32.294Z,11.17
2018-12-02T21:49:01.316Z,11.23
2018-12-02T21:51:30.296Z,11.25
2018-12-02T21:54:00.075Z,11.17
2018-12-02T21:56:28.542Z,11.15
2018-12-02T21:58:57.452Z,11.15
2018-12-02T22:01:26.245Z,11.20
2018-12-02T22:03:55.170Z,11.16
2018-12-02T22:06:24.276Z,11.18
2018-12-02T22:08:53.103Z,11.18
2018-12-02T22:11:21.879Z,11.29
2018-12-02T22:13:51.112Z,11.30
2018-12-02T22:16:19.957Z,11.26
2018-12-02T22:18:48.880Z,11.24
2018-12-02T22:21:17.343Z,11.25
2018-12-02T22:23:46.393Z,11.31
2018-12-02T22:26:15.774Z,11.31
2018-12-02T22:28:45.185Z,11.35
2018-12-02T22:31:14.121Z,11.33
2018-12-02T22:33:42.918Z,11.33
2018-12-02T22:36:14.143Z,11.37
2018-12-02T22:38:40.503Z,11.42
2018-12-02T22:41:09.543Z,11.46
2018-12-02T22:43:38.561Z,11.40
2018-12-02T22:46:07.612Z,11.51
2018-12-02T22:48:36.534Z,11.47
2018-12-02T22:51:05.762Z,11.38
2018-12-02T22:53:34.901Z,11.38
2018-12-02T22:56:03.643Z,11.34
2018-12-02T22:58:32.116Z,11.29
2018-12-02T23:01:06.337Z,11.27
2018-12-02T23:03:35.409Z,11.34
2018-12-02T23:06:04.044Z,11.33
2018-12-02T23:08:32.509Z,11.34
2018-12-02T23:11:01.487Z,11.36
2018-12-02T23:13:30.514Z,11.38
2018-12-02T23:15:59.648Z,11.37
2018-12-02T23:18:28.399Z,11.31
2018-12-02T23:20:57.513Z,11.36
2018-12-02T23:23:26.775Z,11.32
2018-12-02T23:25:55.797Z,11.28
2018-12-02T23:28:25.888Z,11.37
2018-12-02T23:30:54.390Z,11.34
2018-12-02T23:33:23.358Z,11.40
2018-12-02T23:35:52.673Z,11.35
2018-12-02T23:38:21.886Z,11.34
2018-12-02T23:40:50.930Z,11.34
2018-12-02T23:43:20.488Z,11.33
2018-12-02T23:45:49.163Z,11.30
2018-12-02T23:48:18.715Z,11.35
2018-12-02T23:50:47.760Z,11.40
2018-12-02T23:53:16.256Z,11.36
2018-12-02T23:55:44.968Z,11.34
2018-12-02T23:58:13.791Z,11.41
